sensor_id;sensor_type;location;lat;lon;timestamp;P1;durP1;ratioP1;P2;durP2;ratioP2
51995;SDS011;38010;53.264;6.592;2023-06-19T00:02:16;0.90;;;0.90;;
51995;SDS011;38010;53.264;6.592;2023-06-19T00:04:42;1.05;;;1.02;;
51995;SDS011;38010;53.264;6.592;2023-06-19T00:07:07;0.90;;;0.90;;
51995;SDS011;38010;53.264;6.592;2023-06-19T00:09:34;1.15;;;1.13;;
51995;SDS011;38010;53.264;6.592;2023-06-19T00:12:00;1.00;;;1.00;;
51995;SDS011;38010;53.264;6.592;2023-06-19T00:14:26;1.30;;;1.20;;
51995;SDS011;38010;53.264;6.592;2023-06-19T00:16:52;1.05;;;1.02;;
51995;SDS011;38010;53.264;6.592;2023-06-19T00:19:18;1.00;;;1.00;;
51995;SDS011;38010;53.264;6.592;2023-06-19T00:21:43;1.00;;;1.00;;
51995;SDS011;38010;53.264;6.592;2023-06-19T00:24:09;1.05;;;1.00;;
51995;SDS011;38010;53.264;6.592;2023-06-19T00:26:36;0.90;;;0.90;;
51995;SDS011;38010;53.264;6.592;2023-06-19T00:29:01;1.15;;;1.10;;
51995;SDS011;38010;53.264;6.592;2023-06-19T00:31:27;1.02;;;1.00;;
51995;SDS011;38010;53.264;6.592;2023-06-19T00:33:53;1.15;;;1.13;;
51995;SDS011;38010;53.264;6.592;2023-06-19T00:36:19;1.10;;;1.00;;
51995;SDS011;38010;53.264;6.592;2023-06-19T00:38:46;1.70;;;1.10;;
51995;SDS011;38010;53.264;6.592;2023-06-19T00:41:13;0.95;;;0.95;;
51995;SDS011;38010;53.264;6.592;2023-06-19T00:43:42;1.15;;;1.05;;
51995;SDS011;38010;53.264;6.592;2023-06-19T00:46:07;0.90;;;0.90;;
51995;SDS011;38010;53.264;6.592;2023-06-19T00:48:34;0.80;;;0.80;;
51995;SDS011;38010;53.264;6.592;2023-06-19T00:51:00;1.23;;;1.00;;
51995;SDS011;38010;53.264;6.592;2023-06-19T00:53:25;0.90;;;0.90;;
51995;SDS011;38010;53.264;6.592;2023-06-19T00:55:52;1.25;;;1.15;;
51995;SDS011;38010;53.264;6.592;2023-06-19T00:58:20;1.02;;;0.90;;
51995;SDS011;38010;53.264;6.592;2023-06-19T01:00:46;1.00;;;0.85;;
51995;SDS011;38010;53.264;6.592;2023-06-19T01:03:12;0.88;;;0.88;;
51995;SDS011;38010;53.264;6.592;2023-06-19T01:05:38;1.00;;;0.90;;
51995;SDS011;38010;53.264;6.592;2023-06-19T01:08:06;0.90;;;0.90;;
51995;SDS011;38010;53.264;6.592;2023-06-19T01:10:36;1.10;;;1.00;;
51995;SDS011;38010;53.264;6.592;2023-06-19T01:13:22;0.90;;;0.90;;
51995;SDS011;38010;53.264;6.592;2023-06-19T01:16:08;0.70;;;0.70;;
51995;SDS011;38010;53.264;6.592;2023-06-19T01:18:36;1.20;;;1.10;;
51995;SDS011;38010;53.264;6.592;2023-06-19T01:21:12;0.93;;;0.93;;
51995;SDS011;38010;53.264;6.592;2023-06-19T01:23:39;1.00;;;1.00;;
51995;SDS011;38010;53.264;6.592;2023-06-19T01:26:05;0.82;;;0.82;;
51995;SDS011;38010;53.264;6.592;2023-06-19T01:28:32;0.80;;;0.80;;
51995;SDS011;38010;53.264;6.592;2023-06-19T01:31:03;0.90;;;0.90;;
51995;SDS011;38010;53.264;6.592;2023-06-19T01:33:39;0.80;;;0.80;;
51995;SDS011;38010;53.264;6.592;2023-06-19T01:36:07;1.13;;;1.02;;
51995;SDS011;38010;53.264;6.592;2023-06-19T01:38:34;1.33;;;1.10;;
51995;SDS011;38010;53.264;6.592;2023-06-19T01:41:01;0.88;;;0.88;;
51995;SDS011;38010;53.264;6.592;2023-06-19T01:43:28;0.90;;;0.90;;
51995;SDS011;38010;53.264;6.592;2023-06-19T01:45:56;0.90;;;0.90;;
51995;SDS011;38010;53.264;6.592;2023-06-19T01:48:22;1.10;;;0.90;;
51995;SDS011;38010;53.264;6.592;2023-06-19T01:50:48;1.10;;;1.00;;
51995;SDS011;38010;53.264;6.592;2023-06-19T01:53:15;0.90;;;0.90;;
51995;SDS011;38010;53.264;6.592;2023-06-19T01:55:40;0.70;;;0.70;;
51995;SDS011;38010;53.264;6.592;2023-06-19T01:58:06;1.10;;;1.00;;
51995;SDS011;38010;53.264;6.592;2023-06-19T02:00:32;0.80;;;0.80;;
51995;SDS011;38010;53.264;6.592;2023-06-19T02:03:00;0.90;;;0.90;;
51995;SDS011;38010;53.264;6.592;2023-06-19T02:05:26;1.25;;;1.00;;
51995;SDS011;38010;53.264;6.592;2023-06-19T02:07:52;0.90;;;0.90;;
51995;SDS011;38010;53.264;6.592;2023-06-19T02:10:18;0.80;;;0.80;;
51995;SDS011;38010;53.264;6.592;2023-06-19T02:12:43;1.00;;;1.00;;
51995;SDS011;38010;53.264;6.592;2023-06-19T02:15:09;0.98;;;0.98;;
51995;SDS011;38010;53.264;6.592;2023-06-19T02:17:35;0.73;;;0.73;;
51995;SDS011;38010;53.264;6.592;2023-06-19T02:20:01;1.00;;;1.00;;
51995;SDS011;38010;53.264;6.592;2023-06-19T02:22:27;0.73;;;0.73;;
51995;SDS011;38010;53.264;6.592;2023-06-19T02:24:52;0.90;;;0.90;;
51995;SDS011;38010;53.264;6.592;2023-06-19T02:27:18;0.65;;;0.65;;
51995;SDS011;38010;53.264;6.592;2023-06-19T02:29:44;0.88;;;0.88;;
51995;SDS011;38010;53.264;6.592;2023-06-19T02:32:09;0.98;;;0.90;;
51995;SDS011;38010;53.264;6.592;2023-06-19T02:34:35;0.95;;;0.95;;
51995;SDS011;38010;53.264;6.592;2023-06-19T02:37:01;0.90;;;0.90;;
51995;SDS011;38010;53.264;6.592;2023-06-19T02:39:27;0.80;;;0.80;;
51995;SDS011;38010;53.264;6.592;2023-06-19T02:41:52;1.00;;;0.90;;
51995;SDS011;38010;53.264;6.592;2023-06-19T02:44:18;0.98;;;0.98;;
51995;SDS011;38010;53.264;6.592;2023-06-19T02:46:44;0.90;;;0.90;;
51995;SDS011;38010;53.264;6.592;2023-06-19T02:49:09;0.77;;;0.77;;
51995;SDS011;38010;53.264;6.592;2023-06-19T02:51:35;0.80;;;0.80;;
51995;SDS011;38010;53.264;6.592;2023-06-19T02:54:01;0.90;;;0.90;;
51995;SDS011;38010;53.264;6.592;2023-06-19T02:56:26;0.77;;;0.77;;
51995;SDS011;38010;53.264;6.592;2023-06-19T02:58:53;1.17;;;1.00;;
51995;SDS011;38010;53.264;6.592;2023-06-19T03:01:19;0.80;;;0.80;;
51995;SDS011;38010;53.264;6.592;2023-06-19T03:03:45;0.90;;;0.90;;
51995;SDS011;38010;53.264;6.592;2023-06-19T03:06:11;0.98;;;0.98;;
51995;SDS011;38010;53.264;6.592;2023-06-19T03:08:38;1.00;;;0.80;;
51995;SDS011;38010;53.264;6.592;2023-06-19T03:11:04;0.85;;;0.85;;
51995;SDS011;38010;53.264;6.592;2023-06-19T03:13:43;0.90;;;0.90;;
51995;SDS011;38010;53.264;6.592;2023-06-19T03:16:13;0.88;;;0.88;;
51995;SDS011;38010;53.264;6.592;2023-06-19T03:18:40;1.00;;;0.90;;
51995;SDS011;38010;53.264;6.592;2023-06-19T03:21:06;1.30;;;0.85;;
51995;SDS011;38010;53.264;6.592;2023-06-19T03:23:32;0.85;;;0.85;;
51995;SDS011;38010;53.264;6.592;2023-06-19T03:25:58;0.80;;;0.80;;
51995;SDS011;38010;53.264;6.592;2023-06-19T03:28:23;1.00;;;0.90;;
51995;SDS011;38010;53.264;6.592;2023-06-19T03:30:49;0.70;;;0.70;;
51995;SDS011;38010;53.264;6.592;2023-06-19T03:33:15;1.10;;;1.02;;
51995;SDS011;38010;53.264;6.592;2023-06-19T03:35:41;0.70;;;0.70;;
51995;SDS011;38010;53.264;6.592;2023-06-19T03:38:07;1.00;;;1.00;;
51995;SDS011;38010;53.264;6.592;2023-06-19T03:40:33;0.82;;;0.82;;
51995;SDS011;38010;53.264;6.592;2023-06-19T03:42:59;1.00;;;1.00;;
51995;SDS011;38010;53.264;6.592;2023-06-19T03:45:25;0.90;;;0.90;;
51995;SDS011;38010;53.264;6.592;2023-06-19T03:47:50;0.90;;;0.90;;
51995;SDS011;38010;53.264;6.592;2023-06-19T03:50:16;1.10;;;1.00;;
51995;SDS011;38010;53.264;6.592;2023-06-19T03:52:42;1.42;;;1.00;;
51995;SDS011;38010;53.264;6.592;2023-06-19T03:55:07;0.80;;;0.80;;
51995;SDS011;38010;53.264;6.592;2023-06-19T03:57:33;1.10;;;1.00;;
51995;SDS011;38010;53.264;6.592;2023-06-19T03:59:59;1.15;;;0.90;;
51995;SDS011;38010;53.264;6.592;2023-06-19T04:02:25;1.17;;;1.08;;
51995;SDS011;38010;53.264;6.592;2023-06-19T04:04:51;1.42;;;1.15;;
51995;SDS011;38010;53.264;6.592;2023-06-19T04:07:16;1.02;;;1.00;;
51995;SDS011;38010;53.264;6.592;2023-06-19T04:09:42;1.30;;;1.20;;
51995;SDS011;38010;53.264;6.592;2023-06-19T04:12:08;1.05;;;0.98;;
51995;SDS011;38010;53.264;6.592;2023-06-19T04:14:34;4.88;;;1.25;;
51995;SDS011;38010;53.264;6.592;2023-06-19T04:17:00;0.90;;;0.90;;
51995;SDS011;38010;53.264;6.592;2023-06-19T04:19:25;0.82;;;0.82;;
51995;SDS011;38010;53.264;6.592;2023-06-19T04:21:51;1.00;;;1.00;;
51995;SDS011;38010;53.264;6.592;2023-06-19T04:24:17;0.80;;;0.80;;
51995;SDS011;38010;53.264;6.592;2023-06-19T04:26:42;1.08;;;0.98;;
51995;SDS011;38010;53.264;6.592;2023-06-19T04:29:08;0.82;;;0.82;;
51995;SDS011;38010;53.264;6.592;2023-06-19T04:31:41;1.25;;;1.10;;
51995;SDS011;38010;53.264;6.592;2023-06-19T04:34:15;1.33;;;1.20;;
51995;SDS011;38010;53.264;6.592;2023-06-19T04:36:42;0.85;;;0.85;;
51995;SDS011;38010;53.264;6.592;2023-06-19T04:39:07;1.35;;;1.25;;
51995;SDS011;38010;53.264;6.592;2023-06-19T04:41:34;1.40;;;1.10;;
51995;SDS011;38010;53.264;6.592;2023-06-19T04:44:04;1.30;;;1.20;;
51995;SDS011;38010;53.264;6.592;2023-06-19T04:46:30;1.10;;;1.10;;
51995;SDS011;38010;53.264;6.592;2023-06-19T04:48:55;1.67;;;1.20;;
51995;SDS011;38010;53.264;6.592;2023-06-19T04:51:21;1.13;;;1.02;;
51995;SDS011;38010;53.264;6.592;2023-06-19T04:53:47;1.40;;;1.23;;
51995;SDS011;38010;53.264;6.592;2023-06-19T04:56:14;1.35;;;1.25;;
51995;SDS011;38010;53.264;6.592;2023-06-19T04:58:40;1.15;;;1.08;;
51995;SDS011;38010;53.264;6.592;2023-06-19T05:01:11;1.10;;;1.00;;
51995;SDS011;38010;53.264;6.592;2023-06-19T05:03:37;0.82;;;0.82;;
51995;SDS011;38010;53.264;6.592;2023-06-19T05:06:04;1.17;;;1.10;;
51995;SDS011;38010;53.264;6.592;2023-06-19T05:08:30;0.90;;;0.90;;
51995;SDS011;38010;53.264;6.592;2023-06-19T05:10:55;1.73;;;0.90;;
51995;SDS011;38010;53.264;6.592;2023-06-19T05:13:23;1.00;;;0.90;;
51995;SDS011;38010;53.264;6.592;2023-06-19T05:15:49;1.13;;;1.02;;
51995;SDS011;38010;53.264;6.592;2023-06-19T05:18:15;0.90;;;0.90;;
51995;SDS011;38010;53.264;6.592;2023-06-19T05:20:41;1.25;;;0.98;;
51995;SDS011;38010;53.264;6.592;2023-06-19T05:23:07;1.00;;;1.00;;
51995;SDS011;38010;53.264;6.592;2023-06-19T05:25:33;0.80;;;0.80;;
51995;SDS011;38010;53.264;6.592;2023-06-19T05:27:59;1.13;;;1.02;;
51995;SDS011;38010;53.264;6.592;2023-06-19T05:30:24;0.80;;;0.80;;
51995;SDS011;38010;53.264;6.592;2023-06-19T05:32:50;0.70;;;0.70;;
51995;SDS011;38010;53.264;6.592;2023-06-19T05:35:16;11.68;;;7.18;;
51995;SDS011;38010;53.264;6.592;2023-06-19T05:37:42;9.45;;;6.93;;
51995;SDS011;38010;53.264;6.592;2023-06-19T05:40:10;4.15;;;2.47;;
51995;SDS011;38010;53.264;6.592;2023-06-19T05:42:40;7.28;;;4.47;;
51995;SDS011;38010;53.264;6.592;2023-06-19T05:45:06;3.95;;;2.47;;
51995;SDS011;38010;53.264;6.592;2023-06-19T05:47:32;4.40;;;2.85;;
51995;SDS011;38010;53.264;6.592;2023-06-19T05:49:58;5.25;;;3.13;;
51995;SDS011;38010;53.264;6.592;2023-06-19T05:52:24;3.85;;;2.55;;
51995;SDS011;38010;53.264;6.592;2023-06-19T05:54:49;3.83;;;1.95;;
51995;SDS011;38010;53.264;6.592;2023-06-19T05:57:16;2.55;;;1.88;;
51995;SDS011;38010;53.264;6.592;2023-06-19T05:59:46;2.28;;;1.63;;
51995;SDS011;38010;53.264;6.592;2023-06-19T06:02:12;2.33;;;1.55;;
51995;SDS011;38010;53.264;6.592;2023-06-19T06:04:37;2.25;;;1.65;;
51995;SDS011;38010;53.264;6.592;2023-06-19T06:07:03;2.38;;;1.70;;
51995;SDS011;38010;53.264;6.592;2023-06-19T06:09:29;2.33;;;1.70;;
51995;SDS011;38010;53.264;6.592;2023-06-19T06:11:55;1.95;;;1.40;;
51995;SDS011;38010;53.264;6.592;2023-06-19T06:14:21;2.50;;;1.83;;
51995;SDS011;38010;53.264;6.592;2023-06-19T06:16:47;2.45;;;1.70;;
51995;SDS011;38010;53.264;6.592;2023-06-19T06:19:12;2.95;;;1.73;;
51995;SDS011;38010;53.264;6.592;2023-06-19T06:21:38;2.53;;;1.95;;
51995;SDS011;38010;53.264;6.592;2023-06-19T06:24:04;2.47;;;1.75;;
51995;SDS011;38010;53.264;6.592;2023-06-19T06:26:30;2.17;;;1.52;;
51995;SDS011;38010;53.264;6.592;2023-06-19T06:28:56;2.35;;;1.67;;
51995;SDS011;38010;53.264;6.592;2023-06-19T06:31:22;2.35;;;1.80;;
51995;SDS011;38010;53.264;6.592;2023-06-19T06:33:48;1.73;;;1.55;;
51995;SDS011;38010;53.264;6.592;2023-06-19T06:36:14;2.10;;;1.60;;
51995;SDS011;38010;53.264;6.592;2023-06-19T06:38:41;1.90;;;1.60;;
51995;SDS011;38010;53.264;6.592;2023-06-19T06:41:07;1.40;;;1.10;;
51995;SDS011;38010;53.264;6.592;2023-06-19T06:43:33;2.20;;;1.50;;
51995;SDS011;38010;53.264;6.592;2023-06-19T06:45:59;1.77;;;1.40;;
51995;SDS011;38010;53.264;6.592;2023-06-19T06:48:26;1.48;;;1.30;;
51995;SDS011;38010;53.264;6.592;2023-06-19T06:50:52;2.17;;;1.40;;
51995;SDS011;38010;53.264;6.592;2023-06-19T06:53:26;1.20;;;1.10;;
51995;SDS011;38010;53.264;6.592;2023-06-19T06:55:53;1.20;;;1.10;;
51995;SDS011;38010;53.264;6.592;2023-06-19T06:58:19;1.40;;;1.30;;
51995;SDS011;38010;53.264;6.592;2023-06-19T07:00:45;1.30;;;1.20;;
51995;SDS011;38010;53.264;6.592;2023-06-19T07:03:12;1.30;;;1.08;;
51995;SDS011;38010;53.264;6.592;2023-06-19T07:05:38;1.35;;;1.00;;
51995;SDS011;38010;53.264;6.592;2023-06-19T07:08:05;1.20;;;1.10;;
51995;SDS011;38010;53.264;6.592;2023-06-19T07:10:31;1.38;;;1.20;;
51995;SDS011;38010;53.264;6.592;2023-06-19T07:12:57;0.82;;;0.82;;
51995;SDS011;38010;53.264;6.592;2023-06-19T07:15:23;1.10;;;1.00;;
51995;SDS011;38010;53.264;6.592;2023-06-19T07:17:49;1.08;;;0.98;;
51995;SDS011;38010;53.264;6.592;2023-06-19T07:20:15;0.80;;;0.80;;
51995;SDS011;38010;53.264;6.592;2023-06-19T07:22:41;1.25;;;1.15;;
51995;SDS011;38010;53.264;6.592;2023-06-19T07:25:09;1.02;;;0.90;;
51995;SDS011;38010;53.264;6.592;2023-06-19T07:27:36;0.90;;;0.80;;
51995;SDS011;38010;53.264;6.592;2023-06-19T07:30:02;1.10;;;1.00;;
51995;SDS011;38010;53.264;6.592;2023-06-19T07:32:28;1.25;;;1.10;;
51995;SDS011;38010;53.264;6.592;2023-06-19T07:34:54;1.10;;;1.00;;
51995;SDS011;38010;53.264;6.592;2023-06-19T07:37:20;1.17;;;1.08;;
51995;SDS011;38010;53.264;6.592;2023-06-19T07:39:47;0.90;;;0.88;;
51995;SDS011;38010;53.264;6.592;2023-06-19T07:42:14;1.20;;;1.10;;
51995;SDS011;38010;53.264;6.592;2023-06-19T07:44:40;1.10;;;1.00;;
51995;SDS011;38010;53.264;6.592;2023-06-19T07:47:07;0.90;;;0.90;;
51995;SDS011;38010;53.264;6.592;2023-06-19T07:49:33;1.10;;;1.00;;
51995;SDS011;38010;53.264;6.592;2023-06-19T07:51:59;1.00;;;0.90;;
51995;SDS011;38010;53.264;6.592;2023-06-19T07:54:25;3.85;;;1.52;;
51995;SDS011;38010;53.264;6.592;2023-06-19T07:56:52;0.93;;;0.88;;
51995;SDS011;38010;53.264;6.592;2023-06-19T07:59:18;1.30;;;1.20;;
51995;SDS011;38010;53.264;6.592;2023-06-19T08:01:44;1.60;;;1.08;;
51995;SDS011;38010;53.264;6.592;2023-06-19T08:04:10;0.95;;;0.95;;
51995;SDS011;38010;53.264;6.592;2023-06-19T08:06:36;1.20;;;1.10;;
51995;SDS011;38010;53.264;6.592;2023-06-19T08:09:02;0.90;;;0.90;;
51995;SDS011;38010;53.264;6.592;2023-06-19T08:11:29;1.15;;;1.05;;
51995;SDS011;38010;53.264;6.592;2023-06-19T08:13:55;1.20;;;1.10;;
51995;SDS011;38010;53.264;6.592;2023-06-19T08:16:21;0.93;;;0.90;;
51995;SDS011;38010;53.264;6.592;2023-06-19T08:18:47;1.10;;;1.00;;
51995;SDS011;38010;53.264;6.592;2023-06-19T08:21:13;1.33;;;1.20;;
51995;SDS011;38010;53.264;6.592;2023-06-19T08:23:39;1.13;;;1.02;;
51995;SDS011;38010;53.264;6.592;2023-06-19T08:26:08;1.45;;;1.20;;
51995;SDS011;38010;53.264;6.592;2023-06-19T08:28:34;1.38;;;1.27;;
51995;SDS011;38010;53.264;6.592;2023-06-19T08:31:00;1.30;;;1.20;;
51995;SDS011;38010;53.264;6.592;2023-06-19T08:33:27;1.13;;;1.02;;
51995;SDS011;38010;53.264;6.592;2023-06-19T08:35:53;1.33;;;1.23;;
51995;SDS011;38010;53.264;6.592;2023-06-19T08:38:19;1.20;;;1.10;;
51995;SDS011;38010;53.264;6.592;2023-06-19T08:40:45;1.30;;;1.00;;
51995;SDS011;38010;53.264;6.592;2023-06-19T08:43:11;1.67;;;1.10;;
51995;SDS011;38010;53.264;6.592;2023-06-19T08:45:37;1.73;;;1.52;;
51995;SDS011;38010;53.264;6.592;2023-06-19T08:48:03;1.15;;;1.05;;
51995;SDS011;38010;53.264;6.592;2023-06-19T08:50:29;1.25;;;1.15;;
51995;SDS011;38010;53.264;6.592;2023-06-19T08:52:58;1.00;;;0.90;;
51995;SDS011;38010;53.264;6.592;2023-06-19T08:55:24;0.80;;;0.80;;
51995;SDS011;38010;53.264;6.592;2023-06-19T08:57:50;1.30;;;1.10;;
51995;SDS011;38010;53.264;6.592;2023-06-19T09:00:27;1.05;;;0.93;;
51995;SDS011;38010;53.264;6.592;2023-06-19T09:03:01;0.90;;;0.90;;
51995;SDS011;38010;53.264;6.592;2023-06-19T09:05:28;1.83;;;0.90;;
51995;SDS011;38010;53.264;6.592;2023-06-19T09:07:55;0.80;;;0.80;;
51995;SDS011;38010;53.264;6.592;2023-06-19T09:10:22;0.80;;;0.80;;
51995;SDS011;38010;53.264;6.592;2023-06-19T09:12:58;1.30;;;0.98;;
51995;SDS011;38010;53.264;6.592;2023-06-19T09:15:35;0.75;;;0.70;;
51995;SDS011;38010;53.264;6.592;2023-06-19T09:20:35;0.77;;;0.77;;
51995;SDS011;38010;53.264;6.592;2023-06-19T09:23:09;1.20;;;0.80;;
51995;SDS011;38010;53.264;6.592;2023-06-19T09:30:51;0.85;;;0.80;;
51995;SDS011;38010;53.264;6.592;2023-06-19T09:33:21;0.73;;;0.73;;
51995;SDS011;38010;53.264;6.592;2023-06-19T09:35:49;0.73;;;0.70;;
51995;SDS011;38010;53.264;6.592;2023-06-19T09:38:16;0.95;;;0.85;;
51995;SDS011;38010;53.264;6.592;2023-06-19T09:40:44;0.80;;;0.70;;
51995;SDS011;38010;53.264;6.592;2023-06-19T09:43:12;0.80;;;0.80;;
51995;SDS011;38010;53.264;6.592;2023-06-19T09:45:43;0.88;;;0.63;;
51995;SDS011;38010;53.264;6.592;2023-06-19T09:48:11;0.80;;;0.80;;
51995;SDS011;38010;53.264;6.592;2023-06-19T09:50:40;1.20;;;0.70;;
51995;SDS011;38010;53.264;6.592;2023-06-19T09:53:07;0.80;;;0.70;;
51995;SDS011;38010;53.264;6.592;2023-06-19T09:55:33;0.73;;;0.70;;
51995;SDS011;38010;53.264;6.592;2023-06-19T09:58:01;1.33;;;0.80;;
51995;SDS011;38010;53.264;6.592;2023-06-19T10:00:28;0.98;;;0.80;;
51995;SDS011;38010;53.264;6.592;2023-06-19T10:02:56;0.68;;;0.60;;
51995;SDS011;38010;53.264;6.592;2023-06-19T10:05:29;0.50;;;0.50;;
51995;SDS011;38010;53.264;6.592;2023-06-19T10:08:01;0.88;;;0.70;;
51995;SDS011;38010;53.264;6.592;2023-06-19T10:10:28;0.70;;;0.70;;
51995;SDS011;38010;53.264;6.592;2023-06-19T10:12:55;0.70;;;0.68;;
51995;SDS011;38010;53.264;6.592;2023-06-19T10:15:28;1.45;;;0.80;;
51995;SDS011;38010;53.264;6.592;2023-06-19T10:20:30;1.40;;;0.73;;
51995;SDS011;38010;53.264;6.592;2023-06-19T10:23:03;0.80;;;0.73;;
51995;SDS011;38010;53.264;6.592;2023-06-19T10:25:32;0.60;;;0.60;;
51995;SDS011;38010;53.264;6.592;2023-06-19T10:31:03;1.00;;;0.73;;
51995;SDS011;38010;53.264;6.592;2023-06-19T10:33:32;0.90;;;0.80;;
51995;SDS011;38010;53.264;6.592;2023-06-19T10:35:59;1.65;;;0.88;;
51995;SDS011;38010;53.264;6.592;2023-06-19T10:38:26;0.98;;;0.88;;
51995;SDS011;38010;53.264;6.592;2023-06-19T10:40:52;1.35;;;0.73;;
51995;SDS011;38010;53.264;6.592;2023-06-19T10:43:21;0.95;;;0.95;;
51995;SDS011;38010;53.264;6.592;2023-06-19T10:45:50;1.60;;;0.80;;
51995;SDS011;38010;53.264;6.592;2023-06-19T10:48:23;0.90;;;0.85;;
51995;SDS011;38010;53.264;6.592;2023-06-19T10:50:50;0.75;;;0.70;;
51995;SDS011;38010;53.264;6.592;2023-06-19T10:53:26;0.75;;;0.75;;
51995;SDS011;38010;53.264;6.592;2023-06-19T10:55:56;0.80;;;0.65;;
51995;SDS011;38010;53.264;6.592;2023-06-19T10:58:26;1.23;;;0.82;;
51995;SDS011;38010;53.264;6.592;2023-06-19T11:00:52;0.82;;;0.75;;
51995;SDS011;38010;53.264;6.592;2023-06-19T11:03:19;0.77;;;0.77;;
51995;SDS011;38010;53.264;6.592;2023-06-19T11:05:46;0.98;;;0.90;;
51995;SDS011;38010;53.264;6.592;2023-06-19T11:08:19;0.70;;;0.70;;
51995;SDS011;38010;53.264;6.592;2023-06-19T11:10:46;0.80;;;0.80;;
51995;SDS011;38010;53.264;6.592;2023-06-19T11:13:16;0.90;;;0.77;;
51995;SDS011;38010;53.264;6.592;2023-06-19T11:15:43;0.73;;;0.73;;
51995;SDS011;38010;53.264;6.592;2023-06-19T11:18:09;0.70;;;0.70;;
51995;SDS011;38010;53.264;6.592;2023-06-19T11:20:52;1.17;;;0.95;;
51995;SDS011;38010;53.264;6.592;2023-06-19T11:23:28;1.00;;;0.68;;
51995;SDS011;38010;53.264;6.592;2023-06-19T11:26:01;0.80;;;0.80;;
51995;SDS011;38010;53.264;6.592;2023-06-19T11:28:28;0.70;;;0.70;;
51995;SDS011;38010;53.264;6.592;2023-06-19T11:30:57;0.80;;;0.80;;
51995;SDS011;38010;53.264;6.592;2023-06-19T11:33:24;0.70;;;0.70;;
51995;SDS011;38010;53.264;6.592;2023-06-19T11:35:50;0.82;;;0.70;;
51995;SDS011;38010;53.264;6.592;2023-06-19T11:38:18;0.90;;;0.70;;
51995;SDS011;38010;53.264;6.592;2023-06-19T11:40:44;1.00;;;0.90;;
51995;SDS011;38010;53.264;6.592;2023-06-19T11:43:11;1.23;;;0.80;;
51995;SDS011;38010;53.264;6.592;2023-06-19T11:45:47;1.08;;;0.90;;
51995;SDS011;38010;53.264;6.592;2023-06-19T11:48:20;0.80;;;0.80;;
51995;SDS011;38010;53.264;6.592;2023-06-19T11:50:47;0.88;;;0.70;;
51995;SDS011;38010;53.264;6.592;2023-06-19T11:53:12;0.88;;;0.77;;
51995;SDS011;38010;53.264;6.592;2023-06-19T11:55:38;0.93;;;0.82;;
51995;SDS011;38010;53.264;6.592;2023-06-19T11:58:04;0.88;;;0.80;;
51995;SDS011;38010;53.264;6.592;2023-06-19T12:00:31;0.95;;;0.80;;
51995;SDS011;38010;53.264;6.592;2023-06-19T12:02:57;1.27;;;0.80;;
51995;SDS011;38010;53.264;6.592;2023-06-19T12:05:23;0.82;;;0.82;;
51995;SDS011;38010;53.264;6.592;2023-06-19T12:07:49;1.77;;;0.77;;
51995;SDS011;38010;53.264;6.592;2023-06-19T12:10:15;0.90;;;0.90;;
51995;SDS011;38010;53.264;6.592;2023-06-19T12:12:41;1.20;;;1.10;;
51995;SDS011;38010;53.264;6.592;2023-06-19T12:15:06;0.70;;;0.70;;
51995;SDS011;38010;53.264;6.592;2023-06-19T12:17:33;1.25;;;0.95;;
51995;SDS011;38010;53.264;6.592;2023-06-19T12:19:59;0.95;;;0.95;;
51995;SDS011;38010;53.264;6.592;2023-06-19T12:22:26;0.80;;;0.80;;
51995;SDS011;38010;53.264;6.592;2023-06-19T12:24:52;1.02;;;1.00;;
51995;SDS011;38010;53.264;6.592;2023-06-19T12:27:18;0.80;;;0.80;;
51995;SDS011;38010;53.264;6.592;2023-06-19T12:29:43;0.77;;;0.70;;
51995;SDS011;38010;53.264;6.592;2023-06-19T12:32:09;1.52;;;0.82;;
51995;SDS011;38010;53.264;6.592;2023-06-19T12:34:35;1.27;;;1.17;;
51995;SDS011;38010;53.264;6.592;2023-06-19T12:37:01;0.77;;;0.77;;
51995;SDS011;38010;53.264;6.592;2023-06-19T12:39:27;0.85;;;0.80;;
51995;SDS011;38010;53.264;6.592;2023-06-19T12:41:52;1.35;;;1.00;;
51995;SDS011;38010;53.264;6.592;2023-06-19T12:44:18;0.90;;;0.90;;
51995;SDS011;38010;53.264;6.592;2023-06-19T12:46:46;1.55;;;0.93;;
51995;SDS011;38010;53.264;6.592;2023-06-19T12:49:11;1.50;;;1.10;;
51995;SDS011;38010;53.264;6.592;2023-06-19T12:51:37;1.00;;;0.90;;
51995;SDS011;38010;53.264;6.592;2023-06-19T12:54:03;1.05;;;0.95;;
51995;SDS011;38010;53.264;6.592;2023-06-19T12:56:29;1.10;;;1.00;;
51995;SDS011;38010;53.264;6.592;2023-06-19T12:58:55;1.02;;;0.90;;
51995;SDS011;38010;53.264;6.592;2023-06-19T13:01:20;1.27;;;1.00;;
51995;SDS011;38010;53.264;6.592;2023-06-19T13:03:46;0.90;;;0.90;;
51995;SDS011;38010;53.264;6.592;2023-06-19T13:06:12;1.20;;;0.90;;
51995;SDS011;38010;53.264;6.592;2023-06-19T13:08:38;1.00;;;0.90;;
51995;SDS011;38010;53.264;6.592;2023-06-19T13:11:03;0.95;;;0.90;;
51995;SDS011;38010;53.264;6.592;2023-06-19T13:13:29;0.82;;;0.82;;
51995;SDS011;38010;53.264;6.592;2023-06-19T13:15:55;0.90;;;0.90;;
51995;SDS011;38010;53.264;6.592;2023-06-19T13:18:21;1.55;;;0.80;;
51995;SDS011;38010;53.264;6.592;2023-06-19T13:20:47;1.15;;;1.00;;
51995;SDS011;38010;53.264;6.592;2023-06-19T13:23:15;0.82;;;0.80;;
51995;SDS011;38010;53.264;6.592;2023-06-19T13:25:41;1.13;;;1.02;;
51995;SDS011;38010;53.264;6.592;2023-06-19T13:28:06;1.10;;;1.00;;
51995;SDS011;38010;53.264;6.592;2023-06-19T13:30:32;0.73;;;0.73;;
51995;SDS011;38010;53.264;6.592;2023-06-19T13:32:58;2.03;;;1.00;;
51995;SDS011;38010;53.264;6.592;2023-06-19T13:35:23;1.42;;;0.95;;
51995;SDS011;38010;53.264;6.592;2023-06-19T13:37:49;1.30;;;1.20;;
51995;SDS011;38010;53.264;6.592;2023-06-19T13:40:15;1.00;;;1.00;;
51995;SDS011;38010;53.264;6.592;2023-06-19T13:42:41;1.10;;;1.02;;
51995;SDS011;38010;53.264;6.592;2023-06-19T13:45:07;1.27;;;0.90;;
51995;SDS011;38010;53.264;6.592;2023-06-19T13:47:33;0.75;;;0.70;;
51995;SDS011;38010;53.264;6.592;2023-06-19T13:49:58;0.85;;;0.85;;
51995;SDS011;38010;53.264;6.592;2023-06-19T13:52:25;0.88;;;0.88;;
51995;SDS011;38010;53.264;6.592;2023-06-19T13:54:50;1.33;;;1.02;;
51995;SDS011;38010;53.264;6.592;2023-06-19T13:57:16;1.02;;;0.80;;
51995;SDS011;38010;53.264;6.592;2023-06-19T13:59:42;1.75;;;0.82;;
51995;SDS011;38010;53.264;6.592;2023-06-19T14:02:08;0.93;;;0.93;;
51995;SDS011;38010;53.264;6.592;2023-06-19T14:04:35;1.08;;;0.98;;
51995;SDS011;38010;53.264;6.592;2023-06-19T14:07:01;0.82;;;0.80;;
51995;SDS011;38010;53.264;6.592;2023-06-19T14:09:27;1.52;;;0.80;;
51995;SDS011;38010;53.264;6.592;2023-06-19T14:11:52;0.68;;;0.68;;
51995;SDS011;38010;53.264;6.592;2023-06-19T14:14:18;1.00;;;0.90;;
51995;SDS011;38010;53.264;6.592;2023-06-19T14:16:44;0.80;;;0.80;;
51995;SDS011;38010;53.264;6.592;2023-06-19T14:19:10;1.20;;;0.80;;
51995;SDS011;38010;53.264;6.592;2023-06-19T14:21:36;0.82;;;0.80;;
51995;SDS011;38010;53.264;6.592;2023-06-19T14:24:01;1.15;;;0.93;;
51995;SDS011;38010;53.264;6.592;2023-06-19T14:26:27;0.98;;;0.70;;
51995;SDS011;38010;53.264;6.592;2023-06-19T14:28:53;0.80;;;0.80;;
51995;SDS011;38010;53.264;6.592;2023-06-19T14:31:22;0.70;;;0.70;;
51995;SDS011;38010;53.264;6.592;2023-06-19T14:33:48;0.75;;;0.75;;
51995;SDS011;38010;53.264;6.592;2023-06-19T14:36:15;0.82;;;0.82;;
51995;SDS011;38010;53.264;6.592;2023-06-19T14:38:41;0.85;;;0.80;;
51995;SDS011;38010;53.264;6.592;2023-06-19T14:41:07;0.60;;;0.60;;
51995;SDS011;38010;53.264;6.592;2023-06-19T14:43:33;0.75;;;0.70;;
51995;SDS011;38010;53.264;6.592;2023-06-19T14:46:00;0.60;;;0.60;;
51995;SDS011;38010;53.264;6.592;2023-06-19T14:48:28;0.95;;;0.90;;
51995;SDS011;38010;53.264;6.592;2023-06-19T14:50:55;0.60;;;0.60;;
51995;SDS011;38010;53.264;6.592;2023-06-19T14:53:21;0.80;;;0.80;;
51995;SDS011;38010;53.264;6.592;2023-06-19T14:55:47;0.75;;;0.75;;
51995;SDS011;38010;53.264;6.592;2023-06-19T14:58:14;0.80;;;0.60;;
51995;SDS011;38010;53.264;6.592;2023-06-19T15:00:40;0.70;;;0.70;;